sensor_id;sensor_type;location;lat;lon;timestamp;P1;durP1;ratioP1;P2;durP2;ratioP2
50591;SDS011;36548;50.506;30.834;2023-03-23T00:00:26;38.50;;;34.32;;
50591;SDS011;36548;50.506;30.834;2023-03-23T00:01:35;39.38;;;34.33;;
50591;SDS011;36548;50.506;30.834;2023-03-23T00:02:44;40.72;;;35.32;;
50591;SDS011;36548;50.506;30.834;2023-03-23T00:03:53;39.87;;;35.22;;
50591;SDS011;36548;50.506;30.834;2023-03-23T00:05:05;38.98;;;34.45;;
50591;SDS011;36548;50.506;30.834;2023-03-23T00:06:15;39.62;;;34.83;;
50591;SDS011;36548;50.506;30.834;2023-03-23T00:07:25;38.93;;;34.85;;
50591;SDS011;36548;50.506;30.834;2023-03-23T00:08:36;38.95;;;33.70;;
50591;SDS011;36548;50.506;30.834;2023-03-23T00:09:48;39.13;;;34.80;;
50591;SDS011;36548;50.506;30.834;2023-03-23T00:10:59;42.68;;;34.50;;
50591;SDS011;36548;50.506;30.834;2023-03-23T00:12:08;39.73;;;35.30;;
50591;SDS011;36548;50.506;30.834;2023-03-23T00:13:19;41.65;;;35.35;;
50591;SDS011;36548;50.506;30.834;2023-03-23T00:14:28;38.35;;;33.92;;
50591;SDS011;36548;50.506;30.834;2023-03-23T00:15:36;40.75;;;35.35;;
50591;SDS011;36548;50.506;30.834;2023-03-23T00:16:46;40.00;;;35.30;;
50591;SDS011;36548;50.506;30.834;2023-03-23T00:17:54;40.47;;;34.90;;
50591;SDS011;36548;50.506;30.834;2023-03-23T00:19:05;38.67;;;34.32;;
50591;SDS011;36548;50.506;30.834;2023-03-23T00:20:16;39.93;;;35.55;;
50591;SDS011;36548;50.506;30.834;2023-03-23T00:21:26;40.72;;;35.82;;
50591;SDS011;36548;50.506;30.834;2023-03-23T00:22:46;42.72;;;35.60;;
50591;SDS011;36548;50.506;30.834;2023-03-23T00:23:54;41.07;;;36.25;;
50591;SDS011;36548;50.506;30.834;2023-03-23T00:25:03;43.88;;;36.88;;
50591;SDS011;36548;50.506;30.834;2023-03-23T00:26:14;39.50;;;34.42;;
50591;SDS011;36548;50.506;30.834;2023-03-23T00:27:23;40.82;;;35.92;;
50591;SDS011;36548;50.506;30.834;2023-03-23T00:28:32;41.02;;;36.62;;
50591;SDS011;36548;50.506;30.834;2023-03-23T00:29:40;43.45;;;36.40;;
50591;SDS011;36548;50.506;30.834;2023-03-23T00:30:54;42.40;;;36.90;;
50591;SDS011;36548;50.506;30.834;2023-03-23T00:32:05;43.25;;;36.20;;
50591;SDS011;36548;50.506;30.834;2023-03-23T00:33:13;43.67;;;37.35;;
50591;SDS011;36548;50.506;30.834;2023-03-23T00:34:24;41.80;;;35.90;;
50591;SDS011;36548;50.506;30.834;2023-03-23T00:35:33;42.33;;;37.13;;
50591;SDS011;36548;50.506;30.834;2023-03-23T00:36:46;42.15;;;36.73;;
50591;SDS011;36548;50.506;30.834;2023-03-23T00:37:56;42.42;;;36.95;;
50591;SDS011;36548;50.506;30.834;2023-03-23T00:39:08;40.55;;;35.30;;
50591;SDS011;36548;50.506;30.834;2023-03-23T00:40:16;40.27;;;31.77;;
50591;SDS011;36548;50.506;30.834;2023-03-23T00:41:26;42.78;;;34.77;;
50591;SDS011;36548;50.506;30.834;2023-03-23T00:42:35;41.28;;;35.15;;
50591;SDS011;36548;50.506;30.834;2023-03-23T00:43:45;42.07;;;35.25;;
50591;SDS011;36548;50.506;30.834;2023-03-23T00:44:56;42.00;;;35.48;;
50591;SDS011;36548;50.506;30.834;2023-03-23T00:46:06;36.97;;;32.98;;
50591;SDS011;36548;50.506;30.834;2023-03-23T00:47:17;43.24;;;36.76;;
50591;SDS011;36548;50.506;30.834;2023-03-23T00:48:26;38.95;;;34.30;;
50591;SDS011;36548;50.506;30.834;2023-03-23T00:49:35;39.25;;;34.42;;
50591;SDS011;36548;50.506;30.834;2023-03-23T00:50:45;39.65;;;34.75;;
50591;SDS011;36548;50.506;30.834;2023-03-23T00:51:55;41.60;;;35.58;;
50591;SDS011;36548;50.506;30.834;2023-03-23T00:53:07;40.93;;;33.50;;
50591;SDS011;36548;50.506;30.834;2023-03-23T00:54:15;39.90;;;33.57;;
50591;SDS011;36548;50.506;30.834;2023-03-23T00:55:24;38.25;;;33.20;;
50591;SDS011;36548;50.506;30.834;2023-03-23T00:56:34;40.55;;;35.15;;
50591;SDS011;36548;50.506;30.834;2023-03-23T00:57:43;40.25;;;34.95;;
50591;SDS011;36548;50.506;30.834;2023-03-23T00:58:51;40.82;;;35.37;;
50591;SDS011;36548;50.506;30.834;2023-03-23T00:59:59;39.75;;;35.45;;
50591;SDS011;36548;50.506;30.834;2023-03-23T01:01:08;38.62;;;34.47;;
50591;SDS011;36548;50.506;30.834;2023-03-23T01:02:17;40.45;;;33.88;;
50591;SDS011;36548;50.506;30.834;2023-03-23T01:03:26;40.80;;;34.00;;
50591;SDS011;36548;50.506;30.834;2023-03-23T01:04:38;38.65;;;34.48;;
50591;SDS011;36548;50.506;30.834;2023-03-23T01:05:47;37.70;;;32.40;;
50591;SDS011;36548;50.506;30.834;2023-03-23T01:06:55;38.15;;;33.12;;
50591;SDS011;36548;50.506;30.834;2023-03-23T01:08:04;39.83;;;33.57;;
50591;SDS011;36548;50.506;30.834;2023-03-23T01:09:14;40.08;;;33.95;;
50591;SDS011;36548;50.506;30.834;2023-03-23T01:10:25;43.95;;;33.60;;
50591;SDS011;36548;50.506;30.834;2023-03-23T01:11:36;36.87;;;32.28;;
50591;SDS011;36548;50.506;30.834;2023-03-23T01:12:46;38.10;;;32.05;;
50591;SDS011;36548;50.506;30.834;2023-03-23T01:13:56;38.33;;;31.55;;
50591;SDS011;36548;50.506;30.834;2023-03-23T01:15:04;38.12;;;32.97;;
50591;SDS011;36548;50.506;30.834;2023-03-23T01:16:14;38.72;;;34.07;;
50591;SDS011;36548;50.506;30.834;2023-03-23T01:17:22;41.88;;;36.03;;
50591;SDS011;36548;50.506;30.834;2023-03-23T01:18:31;40.42;;;35.20;;
50591;SDS011;36548;50.506;30.834;2023-03-23T01:19:39;40.05;;;33.68;;
50591;SDS011;36548;50.506;30.834;2023-03-23T01:20:48;37.70;;;33.30;;
50591;SDS011;36548;50.506;30.834;2023-03-23T01:21:57;39.40;;;32.23;;
50591;SDS011;36548;50.506;30.834;2023-03-23T01:23:05;37.72;;;33.65;;
50591;SDS011;36548;50.506;30.834;2023-03-23T01:24:14;35.85;;;31.93;;
50591;SDS011;36548;50.506;30.834;2023-03-23T01:25:23;36.38;;;30.68;;
50591;SDS011;36548;50.506;30.834;2023-03-23T01:26:31;38.30;;;32.23;;
50591;SDS011;36548;50.506;30.834;2023-03-23T01:27:40;34.15;;;30.40;;
50591;SDS011;36548;50.506;30.834;2023-03-23T01:28:49;36.42;;;30.20;;
50591;SDS011;36548;50.506;30.834;2023-03-23T01:29:59;39.15;;;33.00;;
50591;SDS011;36548;50.506;30.834;2023-03-23T01:31:08;36.77;;;32.20;;
50591;SDS011;36548;50.506;30.834;2023-03-23T01:32:23;35.10;;;28.83;;
50591;SDS011;36548;50.506;30.834;2023-03-23T01:33:32;34.17;;;30.43;;
50591;SDS011;36548;50.506;30.834;2023-03-23T01:34:40;35.45;;;31.65;;
50591;SDS011;36548;50.506;30.834;2023-03-23T01:35:48;38.48;;;31.65;;
50591;SDS011;36548;50.506;30.834;2023-03-23T01:36:58;39.37;;;32.38;;
50591;SDS011;36548;50.506;30.834;2023-03-23T01:38:07;35.13;;;30.50;;
50591;SDS011;36548;50.506;30.834;2023-03-23T01:39:16;37.47;;;30.63;;
50591;SDS011;36548;50.506;30.834;2023-03-23T01:40:26;37.22;;;30.48;;
50591;SDS011;36548;50.506;30.834;2023-03-23T01:42:49;36.05;;;31.27;;
50591;SDS011;36548;50.506;30.834;2023-03-23T01:45:23;35.28;;;30.88;;
50591;SDS011;36548;50.506;30.834;2023-03-23T01:46:40;33.88;;;29.82;;
50591;SDS011;36548;50.506;30.834;2023-03-23T01:47:49;35.15;;;31.15;;
50591;SDS011;36548;50.506;30.834;2023-03-23T01:49:15;33.88;;;29.27;;
50591;SDS011;36548;50.506;30.834;2023-03-23T01:50:26;36.12;;;29.53;;
50591;SDS011;36548;50.506;30.834;2023-03-23T01:51:40;33.77;;;29.18;;
50591;SDS011;36548;50.506;30.834;2023-03-23T01:52:50;31.67;;;28.15;;
50591;SDS011;36548;50.506;30.834;2023-03-23T01:54:02;31.95;;;28.50;;
50591;SDS011;36548;50.506;30.834;2023-03-23T01:55:14;36.00;;;31.25;;
50591;SDS011;36548;50.506;30.834;2023-03-23T01:56:24;31.28;;;27.90;;
50591;SDS011;36548;50.506;30.834;2023-03-23T01:57:38;33.28;;;28.90;;
50591;SDS011;36548;50.506;30.834;2023-03-23T01:58:47;31.90;;;28.30;;
50591;SDS011;36548;50.506;30.834;2023-03-23T01:59:56;33.03;;;29.47;;
50591;SDS011;36548;50.506;30.834;2023-03-23T02:01:10;32.75;;;28.90;;
50591;SDS011;36548;50.506;30.834;2023-03-23T02:02:21;31.23;;;27.35;;
50591;SDS011;36548;50.506;30.834;2023-03-23T02:03:32;30.20;;;26.87;;
50591;SDS011;36548;50.506;30.834;2023-03-23T02:04:44;32.68;;;27.97;;
50591;SDS011;36548;50.506;30.834;2023-03-23T02:05:53;32.00;;;28.60;;
50591;SDS011;36548;50.506;30.834;2023-03-23T02:07:11;31.60;;;27.93;;
50591;SDS011;36548;50.506;30.834;2023-03-23T02:08:20;32.28;;;26.93;;
50591;SDS011;36548;50.506;30.834;2023-03-23T02:09:30;32.07;;;27.87;;
50591;SDS011;36548;50.506;30.834;2023-03-23T02:10:38;30.93;;;27.70;;
50591;SDS011;36548;50.506;30.834;2023-03-23T02:11:49;34.50;;;29.25;;
50591;SDS011;36548;50.506;30.834;2023-03-23T02:12:58;32.25;;;28.80;;
50591;SDS011;36548;50.506;30.834;2023-03-23T02:14:09;34.07;;;29.20;;
50591;SDS011;36548;50.506;30.834;2023-03-23T02:15:19;31.78;;;28.38;;
50591;SDS011;36548;50.506;30.834;2023-03-23T02:16:50;33.40;;;29.80;;
50591;SDS011;36548;50.506;30.834;2023-03-23T02:18:05;33.60;;;27.42;;
50591;SDS011;36548;50.506;30.834;2023-03-23T02:20:54;30.70;;;27.20;;
50591;SDS011;36548;50.506;30.834;2023-03-23T02:27:20;29.53;;;26.40;;
50591;SDS011;36548;50.506;30.834;2023-03-23T02:33:05;30.17;;;26.43;;
50591;SDS011;36548;50.506;30.834;2023-03-23T02:34:27;28.88;;;25.78;;
50591;SDS011;36548;50.506;30.834;2023-03-23T02:35:41;28.12;;;25.20;;
50591;SDS011;36548;50.506;30.834;2023-03-23T02:38:15;29.65;;;26.27;;
50591;SDS011;36548;50.506;30.834;2023-03-23T02:39:22;28.75;;;25.55;;
50591;SDS011;36548;50.506;30.834;2023-03-23T02:40:36;29.85;;;26.67;;
50591;SDS011;36548;50.506;30.834;2023-03-23T02:41:47;27.95;;;24.95;;
50591;SDS011;36548;50.506;30.834;2023-03-23T02:42:57;28.30;;;25.28;;
50591;SDS011;36548;50.506;30.834;2023-03-23T02:44:08;30.22;;;26.96;;
50591;SDS011;36548;50.506;30.834;2023-03-23T02:45:18;29.10;;;25.40;;
50591;SDS011;36548;50.506;30.834;2023-03-23T02:46:28;30.20;;;26.45;;
50591;SDS011;36548;50.506;30.834;2023-03-23T02:47:39;29.65;;;26.45;;
50591;SDS011;36548;50.506;30.834;2023-03-23T02:48:50;27.75;;;24.75;;
50591;SDS011;36548;50.506;30.834;2023-03-23T02:50:01;29.47;;;25.18;;
50591;SDS011;36548;50.506;30.834;2023-03-23T02:51:10;30.33;;;25.65;;
50591;SDS011;36548;50.506;30.834;2023-03-23T02:52:23;28.88;;;25.78;;
50591;SDS011;36548;50.506;30.834;2023-03-23T02:53:34;29.60;;;26.45;;
50591;SDS011;36548;50.506;30.834;2023-03-23T02:54:46;29.08;;;25.95;;
50591;SDS011;36548;50.506;30.834;2023-03-23T02:55:58;29.62;;;26.35;;
50591;SDS011;36548;50.506;30.834;2023-03-23T02:57:10;31.23;;;27.77;;
50591;SDS011;36548;50.506;30.834;2023-03-23T02:58:20;29.40;;;26.30;;
50591;SDS011;36548;50.506;30.834;2023-03-23T02:59:29;30.68;;;26.25;;
50591;SDS011;36548;50.506;30.834;2023-03-23T03:00:40;29.40;;;26.40;;
50591;SDS011;36548;50.506;30.834;2023-03-23T03:01:50;29.57;;;25.88;;
50591;SDS011;36548;50.506;30.834;2023-03-23T03:03:01;30.90;;;26.30;;
50591;SDS011;36548;50.506;30.834;2023-03-23T03:04:16;30.93;;;27.70;;
50591;SDS011;36548;50.506;30.834;2023-03-23T03:06:58;30.65;;;27.20;;
50591;SDS011;36548;50.506;30.834;2023-03-23T03:11:04;29.23;;;26.02;;
50591;SDS011;36548;50.506;30.834;2023-03-23T03:12:24;29.60;;;26.40;;
50591;SDS011;36548;50.506;30.834;2023-03-23T03:16:27;30.95;;;26.85;;
50591;SDS011;36548;50.506;30.834;2023-03-23T03:17:55;28.42;;;25.27;;
50591;SDS011;36548;50.506;30.834;2023-03-23T03:19:16;30.15;;;26.25;;
50591;SDS011;36548;50.506;30.834;2023-03-23T03:20:33;29.60;;;25.63;;
50591;SDS011;36548;50.506;30.834;2023-03-23T03:21:46;32.88;;;27.83;;
50591;SDS011;36548;50.506;30.834;2023-03-23T03:23:00;31.30;;;25.28;;
50591;SDS011;36548;50.506;30.834;2023-03-23T03:24:11;29.98;;;26.80;;
50591;SDS011;36548;50.506;30.834;2023-03-23T03:25:22;33.77;;;26.68;;
50591;SDS011;36548;50.506;30.834;2023-03-23T03:26:33;29.95;;;25.95;;
50591;SDS011;36548;50.506;30.834;2023-03-23T03:28:28;31.23;;;26.80;;
50591;SDS011;36548;50.506;30.834;2023-03-23T03:29:38;30.18;;;25.68;;
50591;SDS011;36548;50.506;30.834;2023-03-23T03:30:53;30.90;;;27.60;;
50591;SDS011;36548;50.506;30.834;2023-03-23T03:32:04;31.42;;;28.03;;
50591;SDS011;36548;50.506;30.834;2023-03-23T03:33:16;31.90;;;28.20;;
50591;SDS011;36548;50.506;30.834;2023-03-23T03:34:25;34.00;;;28.60;;
50591;SDS011;36548;50.506;30.834;2023-03-23T03:35:36;31.55;;;28.05;;
50591;SDS011;36548;50.506;30.834;2023-03-23T03:36:47;34.62;;;28.72;;
50591;SDS011;36548;50.506;30.834;2023-03-23T03:38:04;32.92;;;28.20;;
50591;SDS011;36548;50.506;30.834;2023-03-23T03:39:10;37.27;;;31.42;;
50591;SDS011;36548;50.506;30.834;2023-03-23T03:40:21;51.30;;;43.40;;
50591;SDS011;36548;50.506;30.834;2023-03-23T03:41:31;40.82;;;36.35;;
50591;SDS011;36548;50.506;30.834;2023-03-23T03:42:39;40.47;;;34.18;;
50591;SDS011;36548;50.506;30.834;2023-03-23T03:43:49;37.10;;;31.35;;
50591;SDS011;36548;50.506;30.834;2023-03-23T03:44:57;34.28;;;29.83;;
50591;SDS011;36548;50.506;30.834;2023-03-23T03:46:06;33.12;;;28.02;;
50591;SDS011;36548;50.506;30.834;2023-03-23T03:47:14;33.48;;;28.95;;
50591;SDS011;36548;50.506;30.834;2023-03-23T03:48:22;32.60;;;29.10;;
50591;SDS011;36548;50.506;30.834;2023-03-23T03:49:31;29.87;;;26.63;;
50591;SDS011;36548;50.506;30.834;2023-03-23T03:50:39;32.42;;;28.70;;
50591;SDS011;36548;50.506;30.834;2023-03-23T03:51:48;32.93;;;28.40;;
50591;SDS011;36548;50.506;30.834;2023-03-23T03:53:00;34.30;;;30.50;;
50591;SDS011;36548;50.506;30.834;2023-03-23T03:54:08;32.77;;;29.33;;
50591;SDS011;36548;50.506;30.834;2023-03-23T03:55:16;33.85;;;30.23;;
50591;SDS011;36548;50.506;30.834;2023-03-23T03:56:27;33.23;;;27.88;;
50591;SDS011;36548;50.506;30.834;2023-03-23T03:57:37;32.60;;;29.15;;
50591;SDS011;36548;50.506;30.834;2023-03-23T03:58:45;33.28;;;29.52;;
50591;SDS011;36548;50.506;30.834;2023-03-23T04:00:10;33.97;;;29.03;;
50591;SDS011;36548;50.506;30.834;2023-03-23T04:01:22;32.75;;;28.88;;
50591;SDS011;36548;50.506;30.834;2023-03-23T04:02:32;33.05;;;29.52;;
50591;SDS011;36548;50.506;30.834;2023-03-23T04:03:40;31.68;;;28.27;;
50591;SDS011;36548;50.506;30.834;2023-03-23T04:05:00;35.50;;;29.47;;
50591;SDS011;36548;50.506;30.834;2023-03-23T04:06:10;32.88;;;29.42;;
50591;SDS011;36548;50.506;30.834;2023-03-23T04:07:22;36.67;;;29.73;;
50591;SDS011;36548;50.506;30.834;2023-03-23T04:08:32;36.05;;;30.95;;
50591;SDS011;36548;50.506;30.834;2023-03-23T04:09:40;36.28;;;30.30;;
50591;SDS011;36548;50.506;30.834;2023-03-23T04:10:50;32.78;;;29.23;;
50591;SDS011;36548;50.506;30.834;2023-03-23T04:12:00;33.58;;;29.55;;
50591;SDS011;36548;50.506;30.834;2023-03-23T04:13:26;35.05;;;29.47;;
50591;SDS011;36548;50.506;30.834;2023-03-23T04:14:48;38.30;;;30.78;;
50591;SDS011;36548;50.506;30.834;2023-03-23T04:15:57;32.85;;;28.20;;
50591;SDS011;36548;50.506;30.834;2023-03-23T04:17:06;32.28;;;28.80;;
50591;SDS011;36548;50.506;30.834;2023-03-23T04:18:17;34.42;;;29.63;;
50591;SDS011;36548;50.506;30.834;2023-03-23T04:20:36;36.38;;;29.63;;
50591;SDS011;36548;50.506;30.834;2023-03-23T04:21:45;34.42;;;29.97;;
50591;SDS011;36548;50.506;30.834;2023-03-23T04:22:57;35.88;;;30.42;;
50591;SDS011;36548;50.506;30.834;2023-03-23T04:24:06;33.03;;;29.20;;
50591;SDS011;36548;50.506;30.834;2023-03-23T04:25:17;33.17;;;29.17;;
50591;SDS011;36548;50.506;30.834;2023-03-23T04:26:30;34.47;;;30.90;;
50591;SDS011;36548;50.506;30.834;2023-03-23T04:27:42;36.90;;;31.77;;
50591;SDS011;36548;50.506;30.834;2023-03-23T04:30:08;33.25;;;29.10;;
50591;SDS011;36548;50.506;30.834;2023-03-23T04:31:31;35.95;;;30.63;;
50591;SDS011;36548;50.506;30.834;2023-03-23T04:32:53;32.85;;;29.27;;
50591;SDS011;36548;50.506;30.834;2023-03-23T04:34:04;33.85;;;29.82;;
50591;SDS011;36548;50.506;30.834;2023-03-23T04:35:14;36.45;;;29.65;;
50591;SDS011;36548;50.506;30.834;2023-03-23T04:36:29;33.73;;;29.22;;
50591;SDS011;36548;50.506;30.834;2023-03-23T04:37:39;33.00;;;29.57;;
50591;SDS011;36548;50.506;30.834;2023-03-23T04:38:49;33.47;;;29.80;;
50591;SDS011;36548;50.506;30.834;2023-03-23T04:40:00;34.65;;;31.00;;
50591;SDS011;36548;50.506;30.834;2023-03-23T04:41:11;33.62;;;28.73;;
50591;SDS011;36548;50.506;30.834;2023-03-23T04:42:30;33.78;;;30.03;;
50591;SDS011;36548;50.506;30.834;2023-03-23T04:44:14;33.50;;;29.95;;
50591;SDS011;36548;50.506;30.834;2023-03-23T04:45:26;33.15;;;29.60;;
50591;SDS011;36548;50.506;30.834;2023-03-23T04:46:36;33.13;;;29.53;;
50591;SDS011;36548;50.506;30.834;2023-03-23T04:47:47;33.37;;;30.00;;
50591;SDS011;36548;50.506;30.834;2023-03-23T04:49:00;33.52;;;29.95;;
50591;SDS011;36548;50.506;30.834;2023-03-23T04:50:11;34.88;;;31.22;;
50591;SDS011;36548;50.506;30.834;2023-03-23T04:51:21;32.98;;;29.57;;
50591;SDS011;36548;50.506;30.834;2023-03-23T04:52:31;33.12;;;29.60;;
50591;SDS011;36548;50.506;30.834;2023-03-23T04:53:41;32.65;;;29.35;;
50591;SDS011;36548;50.506;30.834;2023-03-23T04:54:51;32.30;;;28.80;;
50591;SDS011;36548;50.506;30.834;2023-03-23T04:56:00;32.84;;;28.62;;
50591;SDS011;36548;50.506;30.834;2023-03-23T04:57:11;33.24;;;29.82;;
50591;SDS011;36548;50.506;30.834;2023-03-23T04:58:22;31.78;;;28.55;;
50591;SDS011;36548;50.506;30.834;2023-03-23T04:59:50;32.03;;;28.88;;
50591;SDS011;36548;50.506;30.834;2023-03-23T05:01:01;34.07;;;29.68;;
50591;SDS011;36548;50.506;30.834;2023-03-23T05:02:10;32.57;;;29.08;;
50591;SDS011;36548;50.506;30.834;2023-03-23T05:03:22;32.30;;;29.00;;
50591;SDS011;36548;50.506;30.834;2023-03-23T05:04:32;32.25;;;28.88;;
50591;SDS011;36548;50.506;30.834;2023-03-23T05:05:45;31.87;;;28.67;;
50591;SDS011;36548;50.506;30.834;2023-03-23T05:06:57;37.03;;;27.93;;
50591;SDS011;36548;50.506;30.834;2023-03-23T05:08:07;31.63;;;28.47;;
50591;SDS011;36548;50.506;30.834;2023-03-23T05:09:19;32.80;;;28.72;;
50591;SDS011;36548;50.506;30.834;2023-03-23T05:10:28;32.37;;;28.92;;
50591;SDS011;36548;50.506;30.834;2023-03-23T05:11:38;33.10;;;29.55;;
50591;SDS011;36548;50.506;30.834;2023-03-23T05:12:47;32.93;;;28.75;;
50591;SDS011;36548;50.506;30.834;2023-03-23T05:13:56;32.43;;;28.67;;
50591;SDS011;36548;50.506;30.834;2023-03-23T05:15:05;31.68;;;28.35;;
50591;SDS011;36548;50.506;30.834;2023-03-23T05:16:15;33.00;;;29.50;;
50591;SDS011;36548;50.506;30.834;2023-03-23T05:17:23;34.18;;;30.57;;
50591;SDS011;36548;50.506;30.834;2023-03-23T05:18:33;34.20;;;29.75;;
50591;SDS011;36548;50.506;30.834;2023-03-23T05:19:43;33.17;;;29.77;;
50591;SDS011;36548;50.506;30.834;2023-03-23T05:20:58;32.72;;;29.17;;
50591;SDS011;36548;50.506;30.834;2023-03-23T05:22:11;32.97;;;29.60;;
50591;SDS011;36548;50.506;30.834;2023-03-23T05:23:22;34.25;;;30.65;;
50591;SDS011;36548;50.506;30.834;2023-03-23T05:24:34;33.22;;;29.78;;
50591;SDS011;36548;50.506;30.834;2023-03-23T05:25:44;33.20;;;29.80;;
50591;SDS011;36548;50.506;30.834;2023-03-23T05:26:57;34.15;;;30.58;;
50591;SDS011;36548;50.506;30.834;2023-03-23T05:28:08;34.35;;;30.60;;
50591;SDS011;36548;50.506;30.834;2023-03-23T05:29:21;35.55;;;29.53;;
50591;SDS011;36548;50.506;30.834;2023-03-23T05:30:33;34.15;;;30.42;;
50591;SDS011;36548;50.506;30.834;2023-03-23T05:32:52;34.75;;;30.03;;
50591;SDS011;36548;50.506;30.834;2023-03-23T05:34:42;32.35;;;28.95;;
50591;SDS011;36548;50.506;30.834;2023-03-23T05:35:51;35.87;;;30.40;;
50591;SDS011;36548;50.506;30.834;2023-03-23T05:37:02;37.05;;;31.80;;
50591;SDS011;36548;50.506;30.834;2023-03-23T05:38:25;34.75;;;30.15;;
50591;SDS011;36548;50.506;30.834;2023-03-23T05:39:33;33.83;;;30.33;;
50591;SDS011;36548;50.506;30.834;2023-03-23T05:40:46;35.57;;;31.87;;
50591;SDS011;36548;50.506;30.834;2023-03-23T05:41:59;36.10;;;32.30;;
50591;SDS011;36548;50.506;30.834;2023-03-23T05:43:09;33.90;;;30.40;;
50591;SDS011;36548;50.506;30.834;2023-03-23T05:44:23;36.80;;;32.90;;
50591;SDS011;36548;50.506;30.834;2023-03-23T05:45:34;37.27;;;32.70;;
50591;SDS011;36548;50.506;30.834;2023-03-23T05:46:43;36.20;;;32.20;;
50591;SDS011;36548;50.506;30.834;2023-03-23T05:47:51;35.63;;;31.92;;
50591;SDS011;36548;50.506;30.834;2023-03-23T05:50:13;36.33;;;32.53;;
50591;SDS011;36548;50.506;30.834;2023-03-23T05:51:22;37.33;;;33.45;;
50591;SDS011;36548;50.506;30.834;2023-03-23T05:52:31;38.20;;;32.65;;
50591;SDS011;36548;50.506;30.834;2023-03-23T05:53:42;37.73;;;32.53;;
50591;SDS011;36548;50.506;30.834;2023-03-23T05:54:52;37.62;;;33.48;;
50591;SDS011;36548;50.506;30.834;2023-03-23T05:56:03;37.60;;;31.90;;
50591;SDS011;36548;50.506;30.834;2023-03-23T05:58:00;33.82;;;29.95;;
50591;SDS011;36548;50.506;30.834;2023-03-23T05:59:10;39.20;;;32.50;;
50591;SDS011;36548;50.506;30.834;2023-03-23T06:00:20;36.38;;;32.48;;
50591;SDS011;36548;50.506;30.834;2023-03-23T06:01:32;37.03;;;32.90;;
50591;SDS011;36548;50.506;30.834;2023-03-23T06:02:41;36.25;;;32.23;;
50591;SDS011;36548;50.506;30.834;2023-03-23T06:03:55;37.03;;;33.17;;
50591;SDS011;36548;50.506;30.834;2023-03-23T06:05:08;35.18;;;31.50;;
50591;SDS011;36548;50.506;30.834;2023-03-23T06:06:20;36.65;;;32.18;;
50591;SDS011;36548;50.506;30.834;2023-03-23T06:07:30;37.92;;;33.60;;
50591;SDS011;36548;50.506;30.834;2023-03-23T06:08:40;36.37;;;32.28;;
50591;SDS011;36548;50.506;30.834;2023-03-23T06:09:48;36.72;;;32.93;;
50591;SDS011;36548;50.506;30.834;2023-03-23T06:11:21;38.37;;;32.03;;
50591;SDS011;36548;50.506;30.834;2023-03-23T06:12:31;38.00;;;33.10;;
50591;SDS011;36548;50.506;30.834;2023-03-23T06:13:47;38.47;;;34.13;;
50591;SDS011;36548;50.506;30.834;2023-03-23T06:14:55;37.07;;;31.32;;
50591;SDS011;36548;50.506;30.834;2023-03-23T06:16:06;37.20;;;32.72;;
50591;SDS011;36548;50.506;30.834;2023-03-23T06:17:32;38.07;;;33.98;;
50591;SDS011;36548;50.506;30.834;2023-03-23T06:18:41;35.30;;;31.03;;
50591;SDS011;36548;50.506;30.834;2023-03-23T06:20:41;36.42;;;31.60;;
50591;SDS011;36548;50.506;30.834;2023-03-23T06:21:56;37.72;;;32.45;;
50591;SDS011;36548;50.506;30.834;2023-03-23T06:23:50;34.95;;;31.18;;
50591;SDS011;36548;50.506;30.834;2023-03-23T06:25:00;35.78;;;32.02;;
50591;SDS011;36548;50.506;30.834;2023-03-23T06:26:10;42.07;;;37.33;;
50591;SDS011;36548;50.506;30.834;2023-03-23T06:27:22;36.77;;;32.55;;
50591;SDS011;36548;50.506;30.834;2023-03-23T06:28:32;34.87;;;31.23;;
50591;SDS011;36548;50.506;30.834;2023-03-23T06:29:41;37.37;;;33.17;;
50591;SDS011;36548;50.506;30.834;2023-03-23T06:30:51;37.40;;;33.15;;
50591;SDS011;36548;50.506;30.834;2023-03-23T06:32:01;36.55;;;32.70;;
50591;SDS011;36548;50.506;30.834;2023-03-23T06:33:11;37.02;;;33.02;;
50591;SDS011;36548;50.506;30.834;2023-03-23T06:35:17;37.65;;;31.92;;
50591;SDS011;36548;50.506;30.834;2023-03-23T06:36:29;38.10;;;32.85;;
50591;SDS011;36548;50.506;30.834;2023-03-23T06:37:52;35.95;;;32.18;;
50591;SDS011;36548;50.506;30.834;2023-03-23T06:39:21;34.83;;;31.20;;
50591;SDS011;36548;50.506;30.834;2023-03-23T06:40:38;36.85;;;33.05;;
50591;SDS011;36548;50.506;30.834;2023-03-23T06:41:48;37.90;;;31.90;;
50591;SDS011;36548;50.506;30.834;2023-03-23T06:42:57;33.60;;;30.05;;
50591;SDS011;36548;50.506;30.834;2023-03-23T06:44:25;34.77;;;31.08;;
50591;SDS011;36548;50.506;30.834;2023-03-23T06:45:34;34.12;;;30.48;;
50591;SDS011;36548;50.506;30.834;2023-03-23T06:47:37;33.25;;;29.73;;
50591;SDS011;36548;50.506;30.834;2023-03-23T06:48:46;33.85;;;30.10;;
50591;SDS011;36548;50.506;30.834;2023-03-23T06:49:57;33.20;;;29.65;;
50591;SDS011;36548;50.506;30.834;2023-03-23T06:51:07;33.78;;;30.37;;
50591;SDS011;36548;50.506;30.834;2023-03-23T06:52:17;34.12;;;30.53;;
50591;SDS011;36548;50.506;30.834;2023-03-23T06:53:25;34.18;;;30.40;;
50591;SDS011;36548;50.506;30.834;2023-03-23T06:54:35;32.63;;;29.37;;
50591;SDS011;36548;50.506;30.834;2023-03-23T06:55:44;33.00;;;28.95;;
50591;SDS011;36548;50.506;30.834;2023-03-23T06:56:54;36.35;;;30.00;;
50591;SDS011;36548;50.506;30.834;2023-03-23T06:58:05;34.35;;;30.25;;
50591;SDS011;36548;50.506;30.834;2023-03-23T06:59:14;33.90;;;28.40;;
50591;SDS011;36548;50.506;30.834;2023-03-23T07:00:24;34.47;;;30.78;;
50591;SDS011;36548;50.506;30.834;2023-03-23T07:01:33;32.62;;;29.18;;
50591;SDS011;36548;50.506;30.834;2023-03-23T07:03:53;32.22;;;28.82;;
50591;SDS011;36548;50.506;30.834;2023-03-23T07:05:08;31.40;;;28.15;;
50591;SDS011;36548;50.506;30.834;2023-03-23T07:06:18;33.17;;;29.13;;
50591;SDS011;36548;50.506;30.834;2023-03-23T07:07:28;31.80;;;28.38;;
50591;SDS011;36548;50.506;30.834;2023-03-23T07:09:01;32.57;;;28.53;;
50591;SDS011;36548;50.506;30.834;2023-03-23T07:10:13;37.90;;;32.73;;
50591;SDS011;36548;50.506;30.834;2023-03-23T07:11:21;35.05;;;31.45;;
50591;SDS011;36548;50.506;30.834;2023-03-23T07:12:29;33.28;;;29.38;;
50591;SDS011;36548;50.506;30.834;2023-03-23T07:13:38;34.30;;;30.47;;
50591;SDS011;36548;50.506;30.834;2023-03-23T07:14:46;31.90;;;28.40;;
50591;SDS011;36548;50.506;30.834;2023-03-23T07:15:55;33.15;;;29.25;;
50591;SDS011;36548;50.506;30.834;2023-03-23T07:17:05;31.25;;;27.75;;
50591;SDS011;36548;50.506;30.834;2023-03-23T07:18:17;34.78;;;28.58;;
50591;SDS011;36548;50.506;30.834;2023-03-23T07:19:27;33.70;;;27.90;;
50591;SDS011;36548;50.506;30.834;2023-03-23T07:20:36;30.77;;;26.95;;
50591;SDS011;36548;50.506;30.834;2023-03-23T07:21:45;30.67;;;27.47;;
50591;SDS011;36548;50.506;30.834;2023-03-23T07:22:54;30.07;;;26.67;;
50591;SDS011;36548;50.506;30.834;2023-03-23T07:24:22;30.97;;;26.83;;
50591;SDS011;36548;50.506;30.834;2023-03-23T07:26:22;31.93;;;28.17;;